createdAt,value
2022-10-30T00:01:53.640Z,98.92
2022-10-30T00:04:20.835Z,98.29
2022-10-30T00:06:48.481Z,98.74
2022-10-30T00:09:15.778Z,97.86
2022-10-30T00:11:42.954Z,97.54
2022-10-30T00:14:10.096Z,98.22
2022-10-30T00:16:37.180Z,97.39
2022-10-30T00:19:04.580Z,97.24
2022-10-30T00:21:31.754Z,97.19
2022-10-30T00:23:58.822Z,96.75
2022-10-30T00:26:26.434Z,96.14
2022-10-30T00:28:54.918Z,96.25
2022-10-30T00:31:22.723Z,96.16
2022-10-30T00:33:53.811Z,96.23
2022-10-30T00:36:22.082Z,96.23
2022-10-30T00:38:49.239Z,95.99
2022-10-30T00:41:21.321Z,95.67
2022-10-30T00:43:48.980Z,95.76
2022-10-30T00:46:28.440Z,95.92
2022-10-30T00:49:05.965Z,95.84
2022-10-30T00:51:33.539Z,95.86
2022-10-30T00:54:03.388Z,96.09
2022-10-30T00:56:30.732Z,95.64
2022-10-30T00:59:01.601Z,95.81
2022-10-30T01:01:29.847Z,95.81
2022-10-30T01:03:58.403Z,95.77
2022-10-30T01:06:26.439Z,96.07
2022-10-30T01:08:58.781Z,96.54
2022-10-30T01:11:27.380Z,96.74
2022-10-30T01:13:57.049Z,97.76
2022-10-30T01:16:36.294Z,98.09
2022-10-30T01:19:12.117Z,98.05
2022-10-30T01:21:54.295Z,98.08
2022-10-30T01:24:55.288Z,97.80
2022-10-30T01:28:01.908Z,97.67
2022-10-30T01:30:59.642Z,97.87
2022-10-30T01:33:33.265Z,98.42
2022-10-30T01:36:26.217Z,98.60
2022-10-30T01:39:03.121Z,98.35
2022-10-30T01:41:30.290Z,98.06
2022-10-30T01:44:02.010Z,98.24
2022-10-30T01:46:39.813Z,98.62
2022-10-30T01:49:16.713Z,98.78
2022-10-30T01:51:46.504Z,98.37
2022-10-30T01:54:33.507Z,99.25
2022-10-30T01:57:19.037Z,100.00
2022-10-30T01:59:51.344Z,100.00
2022-10-30T02:02:18.819Z,100.00
2022-10-30T02:04:46.081Z,100.00
2022-10-30T02:07:13.293Z,100.00
2022-10-30T02:09:40.392Z,100.00
2022-10-30T02:12:08.175Z,100.00
2022-10-30T02:14:41.122Z,100.00
2022-10-30T02:17:08.555Z,100.00
2022-10-30T02:19:35.623Z,100.00
2022-10-30T02:22:02.969Z,100.00
2022-10-30T02:24:30.636Z,100.00
2022-10-30T02:26:57.923Z,100.00
2022-10-30T02:29:25.117Z,100.00
2022-10-30T02:31:52.248Z,100.00
2022-10-30T02:34:19.968Z,100.00
2022-10-30T02:36:47.330Z,100.00
2022-10-30T02:39:14.523Z,100.00
2022-10-30T02:41:41.661Z,100.00
2022-10-30T02:44:08.812Z,100.00
2022-10-30T02:46:36.021Z,100.00
2022-10-30T02:49:03.302Z,100.00
2022-10-30T02:51:33.547Z,100.00
2022-10-30T02:54:01.415Z,100.00
2022-10-30T02:56:28.591Z,100.00
2022-10-30T02:58:56.345Z,100.00
2022-10-30T03:01:23.718Z,100.00
2022-10-30T03:03:51.288Z,100.00
2022-10-30T03:06:18.589Z,100.00
2022-10-30T03:08:45.791Z,100.00
2022-10-30T03:11:15.485Z,100.00
2022-10-30T03:13:43.799Z,100.00
2022-10-30T03:16:23.357Z,100.00
2022-10-30T03:18:51.876Z,100.00
2022-10-30T03:21:21.445Z,100.00
2022-10-30T03:23:50.552Z,100.00
2022-10-30T03:26:18.297Z,100.00
2022-10-30T03:28:45.469Z,100.00
2022-10-30T03:31:15.158Z,100.00
2022-10-30T03:33:42.464Z,100.00
2022-10-30T03:36:11.397Z,100.00
2022-10-30T03:38:38.890Z,100.00
2022-10-30T03:41:06.231Z,100.00
2022-10-30T03:43:33.723Z,100.00
2022-10-30T03:46:00.924Z,100.00
2022-10-30T03:48:29.165Z,100.00
2022-10-30T03:50:58.125Z,100.00
2022-10-30T03:53:26.408Z,100.00
2022-10-30T03:55:57.875Z,100.00
2022-10-30T03:58:25.810Z,100.00
2022-10-30T04:00:53.137Z,100.00
2022-10-30T04:03:20.312Z,100.00
2022-10-30T04:05:50.955Z,100.00
2022-10-30T04:08:18.316Z,100.00
2022-10-30T04:10:46.810Z,100.00
2022-10-30T04:13:15.845Z,100.00
2022-10-30T04:15:43.094Z,100.00
2022-10-30T04:18:11.583Z,100.00
2022-10-30T04:20:38.689Z,100.00
2022-10-30T04:23:07.064Z,100.00
2022-10-30T04:25:35.390Z,100.00
2022-10-30T04:28:03.852Z,100.00
2022-10-30T04:30:35.146Z,100.00
2022-10-30T04:33:04.146Z,100.00
2022-10-30T04:35:33.352Z,100.00
2022-10-30T04:38:01.064Z,100.00
2022-10-30T04:40:31.035Z,100.00
2022-10-30T04:42:58.854Z,100.00
2022-10-30T04:45:26.215Z,100.00
2022-10-30T04:47:53.467Z,100.00
2022-10-30T04:50:20.699Z,100.00
2022-10-30T04:52:47.853Z,100.00
2022-10-30T04:55:15.019Z,100.00
2022-10-30T04:57:42.168Z,100.00
2022-10-30T05:00:10.719Z,100.00
2022-10-30T05:02:38.155Z,100.00
2022-10-30T05:05:05.575Z,100.00
2022-10-30T05:07:32.697Z,100.00
2022-10-30T05:09:59.868Z,100.00
2022-10-30T05:12:27.037Z,100.00
2022-10-30T05:14:54.218Z,100.00
2022-10-30T05:17:21.669Z,100.00
2022-10-30T05:19:48.902Z,100.00
2022-10-30T05:22:16.088Z,100.00
2022-10-30T05:24:43.259Z,100.00
2022-10-30T05:27:10.369Z,100.00
2022-10-30T05:29:37.557Z,100.00
2022-10-30T05:32:04.923Z,100.00
2022-10-30T05:34:32.112Z,100.00
2022-10-30T05:36:59.286Z,100.00
2022-10-30T05:39:26.401Z,100.00
2022-10-30T05:41:53.674Z,100.00
2022-10-30T05:44:34.277Z,100.00
2022-10-30T05:47:08.050Z,100.00
2022-10-30T05:49:35.209Z,100.00
2022-10-30T05:52:02.310Z,100.00
2022-10-30T05:54:29.423Z,100.00
2022-10-30T05:56:57.947Z,100.00
2022-10-30T05:59:25.111Z,100.00
2022-10-30T06:01:52.267Z,100.00
2022-10-30T06:04:19.402Z,100.00
2022-10-30T06:06:46.585Z,100.00
2022-10-30T06:09:13.753Z,100.00
2022-10-30T06:11:40.844Z,100.00
2022-10-30T06:14:07.976Z,100.00
2022-10-30T06:16:35.115Z,100.00
2022-10-30T06:19:02.249Z,100.00
2022-10-30T06:21:29.369Z,100.00
2022-10-30T06:23:56.551Z,100.00
2022-10-30T06:26:23.742Z,100.00
2022-10-30T06:28:50.891Z,100.00
2022-10-30T06:31:18.031Z,100.00
2022-10-30T06:33:45.187Z,100.00
2022-10-30T06:36:12.377Z,100.00
2022-10-30T06:38:39.514Z,100.00
2022-10-30T06:41:06.995Z,100.00
2022-10-30T06:43:34.382Z,100.00
2022-10-30T06:46:01.606Z,100.00
2022-10-30T06:48:28.755Z,100.00
2022-10-30T06:51:00.102Z,100.00
2022-10-30T06:53:27.280Z,100.00
2022-10-30T06:56:03.909Z,100.00
2022-10-30T06:58:31.188Z,100.00
2022-10-30T07:01:00.812Z,100.00
2022-10-30T07:03:28.172Z,100.00
2022-10-30T07:05:55.275Z,100.00
2022-10-30T07:08:22.452Z,100.00
2022-10-30T07:10:49.622Z,100.00
2022-10-30T07:13:17.082Z,100.00
2022-10-30T07:15:44.424Z,100.00
2022-10-30T07:18:11.592Z,100.00
2022-10-30T07:20:38.723Z,100.00
2022-10-30T07:23:05.933Z,100.00
2022-10-30T07:25:33.141Z,100.00
2022-10-30T07:28:02.008Z,100.00
2022-10-30T07:30:29.629Z,100.00
2022-10-30T07:33:01.993Z,100.00
2022-10-30T07:35:30.181Z,100.00
2022-10-30T07:38:05.503Z,100.00
2022-10-30T07:40:33.420Z,100.00
2022-10-30T07:43:02.432Z,100.00
2022-10-30T07:45:30.042Z,100.00
2022-10-30T07:47:57.834Z,100.00
2022-10-30T07:50:25.427Z,100.00
2022-10-30T07:52:52.564Z,100.00
2022-10-30T07:55:19.701Z,100.00
2022-10-30T07:57:47.090Z,100.00
2022-10-30T08:00:15.283Z,100.00
2022-10-30T08:02:42.637Z,99.77
2022-10-30T08:05:10.198Z,99.93
2022-10-30T08:07:38.166Z,99.87
2022-10-30T08:10:06.665Z,99.58
2022-10-30T08:12:34.704Z,99.40
2022-10-30T08:15:01.831Z,99.16
2022-10-30T08:17:28.986Z,99.05
2022-10-30T08:19:57.197Z,99.12
2022-10-30T08:22:24.830Z,98.69
2022-10-30T08:24:52.204Z,98.67
2022-10-30T08:27:19.418Z,98.86
2022-10-30T08:29:46.906Z,98.67
2022-10-30T08:32:14.018Z,98.76
2022-10-30T08:34:41.311Z,98.67
2022-10-30T08:37:08.473Z,98.87
2022-10-30T08:39:35.670Z,98.92
2022-10-30T08:42:02.830Z,98.66
2022-10-30T08:44:30.003Z,98.43
2022-10-30T08:46:57.129Z,98.46
2022-10-30T08:49:24.219Z,98.22
2022-10-30T08:51:51.369Z,98.14
2022-10-30T08:54:18.531Z,97.44
2022-10-30T08:56:45.666Z,97.40
2022-10-30T08:59:17.122Z,97.54
2022-10-30T09:01:47.737Z,96.60
2022-10-30T09:04:14.987Z,96.80
2022-10-30T09:06:42.155Z,96.38
2022-10-30T09:09:09.324Z,95.83
2022-10-30T09:11:36.467Z,95.32
2022-10-30T09:14:03.564Z,95.10
2022-10-30T09:16:30.692Z,95.23
2022-10-30T09:18:57.874Z,94.85
2022-10-30T09:21:24.955Z,93.14
2022-10-30T09:23:52.109Z,93.80
2022-10-30T09:26:20.844Z,94.04
2022-10-30T09:28:48.104Z,94.16
2022-10-30T09:31:15.275Z,93.75
2022-10-30T09:33:42.413Z,93.45
2022-10-30T09:36:09.551Z,93.32
2022-10-30T09:38:36.647Z,93.04
2022-10-30T09:41:22.104Z,92.01
2022-10-30T09:43:52.027Z,91.69
2022-10-30T09:46:49.081Z,91.36
2022-10-30T09:49:38.633Z,89.51
2022-10-30T09:52:22.055Z,86.54
2022-10-30T09:55:10.967Z,86.72
2022-10-30T09:58:05.343Z,87.40
2022-10-30T10:00:37.202Z,87.13
2022-10-30T10:03:20.978Z,85.44
2022-10-30T10:05:56.463Z,84.01
2022-10-30T10:08:32.948Z,83.48
2022-10-30T10:11:04.219Z,82.92
2022-10-30T10:13:53.394Z,81.41
2022-10-30T10:16:21.423Z,79.13
2022-10-30T10:19:20.834Z,78.80
2022-10-30T10:22:17.940Z,77.68
2022-10-30T10:24:47.502Z,78.01
2022-10-30T10:27:27.683Z,77.57
2022-10-30T10:30:03.986Z,75.90
2022-10-30T10:33:01.046Z,73.18
2022-10-30T10:35:56.184Z,72.06
2022-10-30T10:38:47.938Z,70.90
2022-10-30T10:41:27.557Z,70.55
2022-10-30T10:44:09.242Z,71.54
2022-10-30T10:47:06.903Z,72.01
2022-10-30T10:49:57.778Z,69.07
2022-10-30T10:52:30.889Z,68.00
2022-10-30T10:55:02.854Z,68.18
2022-10-30T10:57:33.844Z,67.40
2022-10-30T11:00:17.447Z,68.15
2022-10-30T11:02:54.589Z,63.84
2022-10-30T11:05:34.796Z,64.71
2022-10-30T11:08:18.663Z,63.63
2022-10-30T11:10:52.256Z,62.96
2022-10-30T11:13:19.382Z,63.34
2022-10-30T11:15:58.178Z,62.06
2022-10-30T11:18:25.347Z,59.62
2022-10-30T11:21:09.183Z,59.55
2022-10-30T11:23:41.853Z,60.02
2022-10-30T11:26:17.673Z,59.88
2022-10-30T11:28:49.006Z,59.02
2022-10-30T11:31:34.846Z,57.77
2022-10-30T11:34:14.252Z,56.61
2022-10-30T11:36:41.781Z,57.32
2022-10-30T11:39:19.285Z,56.61
2022-10-30T11:41:58.067Z,55.29
2022-10-30T11:44:29.381Z,51.39
2022-10-30T11:46:56.745Z,52.25
2022-10-30T11:49:27.533Z,50.62
2022-10-30T11:51:54.794Z,50.29
2022-10-30T11:54:22.073Z,46.58
2022-10-30T11:56:50.270Z,47.79
2022-10-30T11:59:20.535Z,49.90
2022-10-30T12:02:23.682Z,49.23
2022-10-30T12:04:51.954Z,46.92
2022-10-30T12:07:33.197Z,48.30
2022-10-30T12:10:01.825Z,49.62
2022-10-30T12:12:31.829Z,47.44
2022-10-30T12:15:14.071Z,46.16
2022-10-30T12:17:41.387Z,46.55
2022-10-30T12:20:14.721Z,46.58
2022-10-30T12:22:42.097Z,46.33
2022-10-30T12:25:30.437Z,42.26
2022-10-30T12:28:05.389Z,44.24
2022-10-30T12:30:35.934Z,41.83
2022-10-30T12:33:17.606Z,43.33
2022-10-30T12:35:50.306Z,43.50
2022-10-30T12:38:28.512Z,40.71
2022-10-30T12:41:09.997Z,40.95
2022-10-30T12:43:37.091Z,43.15
2022-10-30T12:46:19.815Z,40.00
2022-10-30T12:48:55.263Z,39.50
2022-10-30T12:51:41.195Z,41.35
2022-10-30T12:54:26.547Z,41.76
2022-10-30T12:57:13.519Z,43.56
2022-10-30T13:00:03.983Z,41.70
2022-10-30T13:02:44.302Z,43.23
2022-10-30T13:05:29.387Z,40.57
2022-10-30T13:08:04.779Z,39.13
2022-10-30T13:10:35.330Z,39.23
2022-10-30T13:13:09.169Z,38.02
2022-10-30T13:15:40.890Z,37.09
2022-10-30T13:18:16.847Z,38.68
2022-10-30T13:20:48.915Z,37.95
2022-10-30T13:23:25.065Z,38.52
2022-10-30T13:26:07.480Z,37.81
2022-10-30T13:28:45.160Z,36.92
2022-10-30T13:31:38.160Z,38.33
2022-10-30T13:34:30.229Z,39.64
2022-10-30T13:37:08.972Z,38.51
2022-10-30T13:39:42.654Z,40.32
2022-10-30T13:42:17.944Z,41.48
2022-10-30T13:45:02.013Z,41.50
2022-10-30T13:47:37.400Z,41.10
2022-10-30T13:50:13.315Z,41.36
2022-10-30T13:52:44.617Z,42.69
2022-10-30T13:55:25.731Z,43.16
2022-10-30T13:58:03.892Z,44.17
2022-10-30T14:00:33.873Z,44.02
2022-10-30T14:03:14.074Z,44.29
2022-10-30T14:06:26.194Z,45.07
2022-10-30T14:09:11.800Z,47.33
2022-10-30T14:11:38.932Z,47.22
2022-10-30T14:14:24.225Z,45.81
2022-10-30T14:17:09.688Z,47.01
2022-10-30T14:20:13.601Z,46.76
2022-10-30T14:22:41.718Z,45.38
2022-10-30T14:25:13.935Z,46.22
2022-10-30T14:27:41.099Z,46.98
2022-10-30T14:30:19.505Z,46.65
2022-10-30T14:32:51.641Z,46.98
2022-10-30T14:35:34.423Z,47.11
2022-10-30T14:38:10.229Z,47.16
2022-10-30T14:40:40.927Z,48.75
2022-10-30T14:43:28.977Z,48.28
2022-10-30T14:46:01.875Z,48.55
2022-10-30T14:48:38.163Z,50.09
2022-10-30T14:51:19.608Z,48.78
2022-10-30T14:54:00.559Z,49.00
2022-10-30T14:56:38.695Z,49.54
2022-10-30T14:59:14.940Z,50.32
2022-10-30T15:02:12.952Z,50.63
2022-10-30T15:04:58.606Z,50.98
2022-10-30T15:07:47.670Z,51.32
2022-10-30T15:10:28.764Z,52.44
2022-10-30T15:13:21.224Z,52.06
2022-10-30T15:16:02.097Z,52.91
2022-10-30T15:18:30.708Z,53.08
2022-10-30T15:21:05.806Z,54.06
2022-10-30T15:23:34.654Z,53.62
2022-10-30T15:26:09.249Z,53.60
2022-10-30T15:28:38.536Z,54.50
2022-10-30T15:31:08.054Z,54.92
2022-10-30T15:33:37.583Z,55.82
2022-10-30T15:36:05.497Z,56.13
2022-10-30T15:38:32.694Z,55.95
2022-10-30T15:41:02.609Z,55.77
2022-10-30T15:43:34.376Z,56.78
2022-10-30T15:46:02.754Z,57.12
2022-10-30T15:48:36.921Z,57.62
2022-10-30T15:51:05.848Z,58.20
2022-10-30T15:53:45.586Z,58.24
2022-10-30T15:56:24.600Z,57.34
2022-10-30T15:58:54.418Z,57.91
2022-10-30T16:01:32.730Z,57.97
2022-10-30T16:04:00.411Z,58.57
2022-10-30T16:06:30.100Z,58.09
2022-10-30T16:08:57.765Z,58.63
2022-10-30T16:11:26.067Z,58.58
2022-10-30T16:13:53.529Z,58.51
2022-10-30T16:16:24.929Z,59.47
2022-10-30T16:18:52.127Z,59.74
2022-10-30T16:21:22.097Z,60.30
2022-10-30T16:23:51.872Z,60.52
2022-10-30T16:26:45.567Z,60.80
2022-10-30T16:29:18.499Z,61.02
2022-10-30T16:31:49.952Z,61.47
2022-10-30T16:34:31.874Z,61.59
2022-10-30T16:36:59.422Z,61.94
2022-10-30T16:39:26.974Z,62.41
2022-10-30T16:41:57.163Z,62.75
2022-10-30T16:44:28.130Z,62.81
2022-10-30T16:47:07.018Z,62.46
2022-10-30T16:49:35.065Z,62.99
2022-10-30T16:52:06.768Z,63.01
2022-10-30T16:54:38.633Z,63.55
2022-10-30T16:57:13.469Z,63.50
2022-10-30T16:59:46.274Z,63.74
2022-10-30T17:02:19.548Z,63.95
2022-10-30T17:04:52.490Z,64.10
2022-10-30T17:07:25.621Z,64.00
2022-10-30T17:09:55.653Z,64.24
2022-10-30T17:12:25.305Z,64.09
2022-10-30T17:15:12.843Z,63.91
2022-10-30T17:17:41.349Z,64.16
2022-10-30T17:20:18.820Z,64.62
2022-10-30T17:22:47.755Z,64.80
2022-10-30T17:25:37.767Z,64.84
2022-10-30T17:28:05.488Z,64.91
2022-10-30T17:30:34.566Z,65.32
2022-10-30T17:33:23.077Z,65.33
2022-10-30T17:35:50.632Z,65.10
2022-10-30T17:38:18.217Z,65.32
2022-10-30T17:40:45.448Z,65.41
2022-10-30T17:43:16.622Z,66.06
2022-10-30T17:45:44.363Z,66.88
2022-10-30T17:48:16.504Z,66.79
2022-10-30T17:50:44.463Z,66.16
2022-10-30T17:53:21.783Z,66.18
2022-10-30T17:55:55.931Z,66.45
2022-10-30T17:58:24.008Z,65.89
2022-10-30T18:00:51.269Z,65.73
2022-10-30T18:03:18.490Z,65.61
2022-10-30T18:05:46.328Z,65.94
2022-10-30T18:08:13.487Z,65.85
2022-10-30T18:10:40.614Z,65.76
2022-10-30T18:13:10.067Z,65.90
2022-10-30T18:15:40.833Z,65.88
2022-10-30T18:18:08.027Z,65.93
2022-10-30T18:20:35.189Z,66.08
2022-10-30T18:23:03.072Z,66.67
2022-10-30T18:25:36.091Z,67.22
2022-10-30T18:28:03.270Z,67.18
2022-10-30T18:30:30.495Z,67.30
2022-10-30T18:32:58.215Z,67.46
2022-10-30T18:35:30.211Z,67.30
2022-10-30T18:37:57.838Z,67.96
2022-10-30T18:40:25.715Z,68.22
2022-10-30T18:42:52.909Z,68.28
2022-10-30T18:45:33.691Z,68.32
2022-10-30T18:48:01.133Z,68.63
2022-10-30T18:50:32.560Z,69.01
2022-10-30T18:53:00.779Z,69.14
2022-10-30T18:55:35.642Z,69.34
2022-10-30T18:58:03.964Z,69.17
2022-10-30T19:00:45.104Z,69.09
2022-10-30T19:03:18.962Z,69.15
2022-10-30T19:05:47.926Z,69.19
2022-10-30T19:08:15.647Z,69.88
2022-10-30T19:10:45.182Z,69.61
2022-10-30T19:13:12.887Z,69.83
2022-10-30T19:15:43.903Z,69.88
2022-10-30T19:18:11.456Z,70.49
2022-10-30T19:20:58.865Z,70.82
2022-10-30T19:23:25.992Z,70.92
2022-10-30T19:25:53.354Z,70.98
2022-10-30T19:28:21.501Z,70.54
2022-10-30T19:30:54.697Z,70.60
2022-10-30T19:33:23.534Z,70.52
2022-10-30T19:35:55.358Z,70.62
2022-10-30T19:38:23.255Z,70.88
2022-10-30T19:40:50.508Z,70.44
2022-10-30T19:43:17.663Z,70.59
2022-10-30T19:45:44.895Z,71.25
2022-10-30T19:48:24.888Z,71.98
2022-10-30T19:51:01.605Z,71.92
2022-10-30T19:53:28.702Z,72.91
2022-10-30T19:55:55.862Z,72.70
2022-10-30T19:58:25.926Z,73.33
2022-10-30T20:00:56.516Z,72.80
2022-10-30T20:03:23.717Z,72.33
2022-10-30T20:05:50.875Z,72.76
2022-10-30T20:08:23.229Z,73.44
2022-10-30T20:10:51.498Z,73.11
2022-10-30T20:13:20.285Z,73.54
2022-10-30T20:15:47.598Z,73.39
2022-10-30T20:18:20.078Z,74.11
2022-10-30T20:20:52.440Z,74.40
2022-10-30T20:23:20.267Z,76.17
2022-10-30T20:25:48.645Z,76.08
2022-10-30T20:28:25.092Z,76.56
2022-10-30T20:30:53.293Z,75.98
2022-10-30T20:33:21.493Z,75.79
2022-10-30T20:35:50.226Z,75.19
2022-10-30T20:38:22.129Z,75.07
2022-10-30T20:40:49.257Z,75.68
2022-10-30T20:43:18.314Z,75.70
2022-10-30T20:45:45.800Z,75.13
2022-10-30T20:48:13.237Z,75.20
2022-10-30T20:50:41.167Z,76.07
2022-10-30T20:53:12.462Z,75.92
2022-10-30T20:55:40.763Z,75.85
2022-10-30T20:58:07.972Z,76.24
2022-10-30T21:00:35.266Z,76.56
2022-10-30T21:03:03.383Z,76.50
2022-10-30T21:05:48.835Z,76.30
2022-10-30T21:08:16.132Z,76.14
2022-10-30T21:10:43.251Z,76.53
2022-10-30T21:13:11.539Z,76.54
2022-10-30T21:15:40.323Z,76.37
2022-10-30T21:18:07.492Z,76.60
2022-10-30T21:20:34.615Z,76.59
2022-10-30T21:23:01.911Z,76.78
2022-10-30T21:25:29.594Z,76.83
2022-10-30T21:27:57.056Z,77.47
2022-10-30T21:30:24.269Z,77.62
2022-10-30T21:32:51.399Z,78.16
2022-10-30T21:35:18.714Z,79.03
2022-10-30T21:37:45.875Z,78.48
2022-10-30T21:40:13.174Z,78.88
2022-10-30T21:42:40.342Z,79.64
2022-10-30T21:45:08.405Z,79.28
2022-10-30T21:47:35.560Z,80.06
2022-10-30T21:50:06.285Z,80.09
2022-10-30T21:52:36.474Z,79.70
2022-10-30T21:55:03.770Z,79.45
2022-10-30T21:57:30.972Z,80.02
2022-10-30T22:00:00.176Z,80.42
2022-10-30T22:02:30.646Z,80.25
2022-10-30T22:04:57.717Z,80.38
2022-10-30T22:07:24.865Z,80.42
2022-10-30T22:09:53.561Z,80.10
2022-10-30T22:12:20.754Z,80.03
2022-10-30T22:14:47.924Z,80.00
2022-10-30T22:17:15.093Z,79.69
2022-10-30T22:19:43.513Z,80.36
2022-10-30T22:22:11.189Z,81.31
2022-10-30T22:24:38.406Z,81.40
2022-10-30T22:27:05.587Z,81.20
2022-10-30T22:29:32.794Z,81.27
2022-10-30T22:31:59.893Z,80.90
2022-10-30T22:34:27.013Z,80.80
2022-10-30T22:36:54.099Z,81.54
2022-10-30T22:39:21.275Z,83.12
2022-10-30T22:41:48.404Z,82.78
2022-10-30T22:44:19.635Z,83.23
2022-10-30T22:46:46.957Z,82.85
2022-10-30T22:49:14.364Z,82.72
2022-10-30T22:51:41.516Z,83.04
2022-10-30T22:54:12.333Z,84.21
2022-10-30T22:56:40.210Z,84.63
2022-10-30T22:59:10.787Z,83.76
2022-10-30T23:01:38.902Z,84.47
2022-10-30T23:04:07.126Z,83.55
2022-10-30T23:06:34.982Z,83.46
2022-10-30T23:09:06.206Z,83.56
2022-10-30T23:11:33.353Z,82.92
2022-10-30T23:14:00.672Z,82.35
2022-10-30T23:16:28.263Z,82.60
2022-10-30T23:18:56.879Z,82.56
2022-10-30T23:21:25.983Z,82.94
2022-10-30T23:23:53.585Z,83.00
2022-10-30T23:26:24.715Z,84.09
2022-10-30T23:28:53.268Z,84.49
2022-10-30T23:31:25.628Z,84.17
2022-10-30T23:33:55.081Z,84.74
2022-10-30T23:36:22.660Z,83.93
2022-10-30T23:38:58.000Z,85.17
2022-10-30T23:41:27.861Z,85.16
2022-10-30T23:43:59.498Z,84.60
2022-10-30T23:46:26.861Z,85.38
2022-10-30T23:48:54.414Z,84.71
2022-10-30T23:51:21.771Z,84.97
2022-10-30T23:53:49.123Z,85.28
2022-10-30T23:56:16.806Z,85.49
2022-10-30T23:58:45.224Z,85.96
